Nearby METAR Reports

 

PAEN - Kenai, Alaska, USA
Distance from station: ESE 2mi, 4km
Updated: Fri, 23-Feb-2018 6:53pm AKST
Overcast
Overcast
 Wind from N
Wind: N 7 mph , 11 km/h
Temperature: 23°F , -5°C
Wind Chill: 15°F , -9°C
Dew Point: 18°F , -8°C
Humidity: 80%
Barometer: 29.96 inHg , 1014.6 hPa
Clouds: Overcast
Visibility: 10 miles , 16 km
Cloud details: Overcast 8500 ft
2018/02/24 03:53 PAEN 240353Z 01006KT 10SM OVC085 M05/M08 A2996 RMK AO2 SLP150 T10501078
PASX - Soldotna, Alaska, USA
Distance from station: SE 12mi, 19km
Updated: Fri, 23-Feb-2018 6:56pm AKST
Overcast
Overcast
 Wind from ENE
Wind: ENE 3 mph , 6 km/h
Temperature: 25°F , -4°C
Dew Point: 16°F , -9°C
Humidity: 69%
Barometer: 29.97 inHg , 1014.9 hPa
Clouds: Overcast
Visibility: 10 miles , 16 km
Cloud details: Mostly cloudy 8000 ft
Overcast 9500 ft
2018/02/24 03:56 PASX 240356Z AUTO 06003KT 10SM BKN080 OVC095 M04/M09 A2997 RMK AO2 SLP160 P0001 T10441089 FZRANO
 
PANC - Anchorage Intl, Alaska, USA
Distance from station: NE 59mi, 96km
Updated: Fri, 23-Feb-2018 6:53pm AKST
Mostly cloudy
Mostly cloudy
 Wind from NE
Wind: NE 8 mph , 13 km/h
Temperature: 25°F , -4°C
Wind Chill: 16°F , -9°C
Dew Point: 16°F , -9°C
Humidity: 69%
Barometer: 29.96 inHg , 1014.6 hPa
Clouds: Mostly cloudy
Visibility: 10 miles , 16 km
Cloud details: Mostly cloudy 13000 ft
2018/02/24 03:53 PANC 240353Z 04007KT 10SM BKN130 M04/M09 A2996 RMK AO2 SLP149 T10391089
PALH - Anchorage/Lake H, Alaska, USA
Distance from station: NE 61mi, 99km
Updated: Fri, 23-Feb-2018 6:53pm AKST
Clear
Clear
 Wind from NE
Wind: NE 7 mph , 11 km/h
Temperature: 25°F , -4°C
Wind Chill: 17°F , -8°C
Dew Point: 16°F , -9°C
Humidity: 69%
Barometer: 29.98 inHg , 1015.2 hPa
Clouds: Clear
Visibility: 10 miles , 16 km
2018/02/24 03:53 PALH 240353Z AUTO 04006KT 10SM CLR M04/M09 A2998 RMK AO2 SLP152 T10441094 TSNO
 
PAHO - Homer, Alaska, USA
Distance from station: S 66mi, 106km
Updated: Fri, 23-Feb-2018 6:53pm AKST
Overcast
Overcast
 Wind from ENE
Wind: ENE 6 mph , 9 km/h
Temperature: 32°F , 0°C
Wind Chill: 26°F , -3°C
Dew Point: 18°F , -8°C
Humidity: 55%
Barometer: 29.92 inHg , 1013.2 hPa
Clouds: Overcast
Visibility: 10 miles , 16 km
Cloud details: Overcast 8500 ft
2018/02/24 03:53 PAHO 240353Z 07005KT 10SM OVC085 00/M08 A2992 RMK AO2 SLP132 T00001083
PAMR - Anchorage/Merril, Alaska, USA
Distance from station: NE 66mi, 106km
Updated: Fri, 23-Feb-2018 6:53pm AKST
Clear
Clear
 Wind from NNE
Wind: NNE 5 mph , 7 km/h
Temperature: 25°F , -4°C
Wind Chill: 19°F , -7°C
Dew Point: 14°F , -10°C
Humidity: 63%
Barometer: 29.97 inHg , 1014.9 hPa
Clouds: Clear
Visibility: 10 miles , 16 km
2018/02/24 03:53 PAMR 240353Z 02004KT 10SM CLR M04/M10 A2997 RMK AO2 SLP150 T10441100
 
PAED - Elmendorf Afb, Alaska, USA
Distance from station: NE 69mi, 110km
Updated: Fri, 23-Feb-2018 6:56pm AKST
Mostly cloudy
Mostly cloudy
 Wind from NNW
Wind: NNW 8 mph , 13 km/h
Temperature: 23°F , -5°C
Wind Chill: 14°F , -10°C
Dew Point: 12°F , -11°C
Humidity: 63%
Barometer: 29.95 inHg , 1014.2 hPa
Clouds: Mostly cloudy
Visibility: 10 miles , 16 km
Cloud details: Mostly cloudy 11000 ft
2018/02/24 03:56 PAED 240356Z AUTO 33007KT 10SM BKN110 M05/M11 A2995 RMK AO2 SLP141 T10501106
PAWD - Seward, Alaska, USA
Distance from station: ESE 71mi, 115km
Updated: Fri, 23-Feb-2018 6:53pm AKST
Overcast
Overcast
 Wind from NNE
Wind: NNE 6 mph , 9 km/h
Temperature: 30°F , -1°C
Wind Chill: 24°F , -4°C
Dew Point: 9°F , -13°C
Humidity: 40%
Barometer: 29.95 inHg , 1014.2 hPa
Clouds: Overcast
Visibility: 10 miles , 16 km
Cloud details: Overcast 11000 ft
2018/02/24 03:53 PAWD 240353Z AUTO 02005KT 10SM OVC110 M01/M13 A2995 RMK AO2 SLP141 T10111128 TSNO
 
PASC - Deadhorse, Alaska, USA
Distance from station: ENE 670mi, 1078km
Updated: Fri, 23-Feb-2018 7:01pm AKST
Blowing snow, Mist, Overcast
Blowing snow, Mist, Overcast
 Wind from WSW
Wind: WSW 20 mph , 31 km/h
Temperature: 5°F , -15°C
Wind Chill: -15°F , -26°C
Dew Point: 1°F , -17°C
Humidity: 85%
Barometer: 29.91 inHg , 1012.9 hPa
Summary: Blowing snow, Mist
Clouds: Overcast
Visibility: 2 miles , 3 km
Cloud details: Few Clouds 3700 ft
Overcast 4900 ft
2018/02/24 04:01 PASC 240401Z 25017KT 2SM BLSN BR FEW037 OVC049 M15/M17 A2991 RMK AO2 SNE0357 P0000 T11501172
PAAD - Point Thomson, Alaska, USA
Distance from station: ENE 680mi, 1094km
Updated: Fri, 23-Feb-2018 6:55pm AKST
Light snow, Overcast
Light snow, Overcast
 Wind from W
Wind: W 24 mph , 39 km/h
Temperature: 3°F , -16°C
Wind Chill: -20°F , -29°C
Dew Point: -0°F , -18°C
Humidity: 85%
Barometer: 29.90 inHg , 1012.5 hPa
Summary: Light Snow
Clouds: Overcast
Visibility: 1 mile , 2 km
Cloud details: Mostly cloudy 900 ft
Overcast 2100 ft
2018/02/24 03:55 PAAD 240355Z AUTO 26021KT 1SM -SN BKN009 OVC021 M16/M18 A2990 RMK AO2 T11621181


kenaipeople.com website

Dans Automotive

Lower Peninsula Power Sports

Freddies RoadHouse

Alaska Weather Net

United States Weather Group